• Join FlightAware (Why Join?)
  • Login
  • US Flag 
02:07AM EDT


 

Airport Tracker/Info


-or-


 

Live Flight TrackerFlight Track Log ✈ N5085K ✈ 22-Mar-2014 ✈ KVLD - KIPJ

Flight Track Log - Related Links

Times and Time Zones

All times are in EDT time to prevent confusion due to time zone crossing. See the N5085K flight status page for this flight to view local times or setup timezone preferences in your user account.

Time Position Orientation Groundspeed Altitude Reporting Facility
EDT Latitude Longitude Course Direction KTS MPH feet Rate Location/Type
11:38AM 30.7711 -83.2747 169° South 76 87 600  Level Jacksonville Center
11:39AM 30.7483 -83.2697 170° South 79 91 1,300 660 Climbing Jacksonville Center
11:40AM 30.7275 -83.2622 163° South 83 96 2,000 720 Climbing Jacksonville Center
11:41AM 30.7067 -83.2525 158° South 77 89 2,800 660 Climbing Jacksonville Center
11:42AM 30.7086 -83.2406 79° East 78 90 3,400 540 Climbing Jacksonville Center
11:43AM 30.7317 -83.2406 360° North 79 91 4,000 540 Climbing Jacksonville Center
11:44AM 30.7547 -83.2358 10° North 85 98 4,500 540 Climbing Jacksonville Center
11:45AM 30.7775 -83.2358 360° North 86 99 5,100 540 Climbing Jacksonville Center
11:46AM 30.8006 -83.2361 359° North 83 96 5,600 540 Climbing Jacksonville Center
11:47AM 30.8236 -83.2361 360° North 78 90 6,200 540 Climbing Jacksonville Center
11:48AM 30.8486 -83.2339 North 76 87 6,800 360 Climbing Jacksonville Center
11:49AM 30.8736 -83.2289 10° North 84 97 7,100 60 Climbing Jacksonville Center
11:50AM 30.9050 -83.2219 11° North 121 139 7,000 -120 Descending Jacksonville Center
11:51AM 30.9258 -83.2025 39° Northeast 120 138 6,900  Descending Jacksonville Center
11:52AM 30.9489 -83.1783 42° Northeast 107 123 7,000 60 Climbing Jacksonville Center
11:53AM 30.9761 -83.1592 31° Northeast 110 127 7,100  Climbing Jacksonville Center
11:54AM 31.0011 -83.1325 42° Northeast 116 133 7,000 -60 Descending Jacksonville Center
11:55AM 31.0283 -83.1156 28° Northeast 115 132 7,000  Level Jacksonville Center
11:56AM 31.0597 -83.1158 360° North 109 125 7,000  Level Jacksonville Center
11:57AM 31.0889 -83.1133 North 111 128 7,000  Level Jacksonville Center
11:58AM 31.1203 -83.1086 North 110 127 7,000  Level Jacksonville Center
11:59AM 31.1517 -83.1061 North 111 128 7,000  Level Jacksonville Center
12:00PM 31.1850 -83.1039 North 112 129 7,000  Level Jacksonville Center
12:01PM 31.2081 -83.1039 360° North 113 130 7,000  Level Jacksonville Center
12:01PM 31.2164 -83.1039 360° North 115 132 7,000  Level Jacksonville Center
12:02PM 31.2414 -83.1017 North 113 130 7,000  Level Jacksonville Center
12:02PM 31.2497 -83.1039 347° North 114 131 7,000  Level Jacksonville Center
12:03PM 31.2728 -83.1017 North 113 130 7,000  Level Jacksonville Center
12:03PM 31.2811 -83.1042 346° North 112 129 7,000  Level Jacksonville Center
12:04PM 31.3019 -83.1017 North 113 130 7,000  Level Jacksonville Center
12:05PM 31.3353 -83.1017 360° North 120 138 7,000  Level Jacksonville Center
12:06PM 31.3667 -83.1019 360° North 120 138 7,000  Level Jacksonville Center
12:07PM 31.4000 -83.1019 360° North 115 132 7,000  Level Jacksonville Center
12:08PM 31.4314 -83.0994 North 115 132 7,000 -60 Level Jacksonville Center
12:09PM 31.4628 -83.0994 360° North 115 132 6,900  Descending Jacksonville Center
12:10PM 31.4942 -83.0997 360° North 115 132 7,000  Climbing Jacksonville Center
12:11PM 31.5253 -83.0997 360° North 115 132 7,000  Level Jacksonville Center
12:12PM 31.5567 -83.0997 360° North 115 132 7,000  Level Jacksonville Center
12:13PM 31.5922 -83.0975 North 115 132 7,000  Level Jacksonville Center
12:14PM 31.6236 -83.0950 North 115 132 7,100  Climbing Jacksonville Center
12:15PM 31.6569 -83.0928 North 115 132 7,000 -60 Descending Jacksonville Center
12:16PM 31.6903 -83.0953 356° North 120 138 7,000  Level Jacksonville Center
12:17PM 31.7236 -83.0928 North 120 138 7,000  Level Jacksonville Center
12:18PM 31.7592 -83.0928 360° North 120 138 7,000  Level Jacksonville Center
12:19PM 31.7906 -83.0906 North 120 138 7,000 -60 Level Jacksonville Center
12:20PM 31.8261 -83.0881 North 120 138 6,900  Descending Jacksonville Center
12:21PM 31.8594 -83.0883 360° North 120 138 7,000  Climbing Jacksonville Center
12:22PM 31.8908 -83.0883 360° North 120 138 7,000  Level Jacksonville Center
12:23PM 31.9242 -83.0836 North 120 138 7,000  Level Jacksonville Center
12:24PM 31.9575 -83.0836 360° North 120 138 7,000  Level Jacksonville Center
12:25PM 31.9931 -83.0811 North 120 138 7,000  Level Jacksonville Center
12:26PM 32.0244 -83.0764 North 120 138 7,000  Level Jacksonville Center
12:27PM 32.0558 -83.0714 North 120 138 7,000  Level Jacksonville Center
12:28PM 32.1167 -83.0667 North 117 135 7,100  Climbing Atlanta TRACON
12:29PM 32.1500 -83.0667 360° North 119 137 7,000 -120 Descending Atlanta TRACON
12:30PM 32.1833 -83.0667 360° North 122 140 6,900  Descending Atlanta TRACON
12:31PM 32.2000 -83.0667 360° North 121 139 7,000  Climbing Atlanta TRACON
12:32PM 32.2500 -83.0667 360° North 122 140 7,000  Level Atlanta TRACON
12:33PM 32.2667 -83.0667 360° North 121 139 7,000  Level Atlanta TRACON
12:34PM 32.3167 -83.0500 16° North 121 139 7,000  Level Atlanta TRACON
12:35PM 32.3333 -83.0500 360° North 123 142 7,000  Level Atlanta TRACON
12:36PM 32.3667 -83.0500 360° North 122 140 7,000  Level Atlanta TRACON
12:37PM 32.4000 -83.0500 360° North 121 139 7,000  Level Atlanta TRACON
12:38PM 32.4333 -83.0500 360° North 120 138 7,000  Level Atlanta TRACON
12:39PM 32.4667 -83.0333 23° Northeast 117 135 7,000  Level Atlanta TRACON
12:40PM 32.5000 -83.0000 40° Northeast 118 136 7,000  Level Atlanta TRACON
12:41PM 32.5167 -82.9833 40° Northeast 118 136 7,000  Level Atlanta TRACON
12:42PM 32.5500 -82.9667 23° Northeast 120 138 7,100  Climbing Atlanta TRACON
12:43PM 32.5833 -82.9500 23° Northeast 124 143 7,000 -120 Descending Atlanta TRACON
12:44PM 32.6167 -82.9333 23° Northeast 122 140 6,900  Descending Atlanta TRACON
12:45PM 32.6500 -82.9167 23° Northeast 120 138 7,000  Climbing Atlanta TRACON
12:46PM 32.6667 -82.9000 40° Northeast 119 137 7,000  Level Atlanta TRACON
12:47PM 32.7000 -82.8833 23° Northeast 118 136 7,000  Level Atlanta TRACON
12:48PM 32.7333 -82.8667 23° Northeast 120 138 7,000 -60 Level Atlanta TRACON
12:49PM 32.7500 -82.8500 40° Northeast 118 136 6,900 -60 Descending Atlanta TRACON
12:50PM 32.7833 -82.8167 40° Northeast 117 135 6,900 -60 Level Atlanta TRACON
12:52PM 32.8180 -82.7936 29° Northeast  Level FlightAware Approximate
12:59PM 32.9956 -82.6753 29° Northeast  Level FlightAware Approximate
01:00PM 33.0211 -82.6587 29° Northeast  Level FlightAware Approximate
01:01PM 33.0466 -82.6421 29° Northeast  Level FlightAware Approximate
01:02PM 33.0720 -82.6254 29° Northeast  Level FlightAware Approximate
01:03PM 33.0975 -82.6087 29° Northeast  Level FlightAware Approximate
01:04PM 33.1230 -82.5921 29° Northeast  Level FlightAware Approximate
01:05PM 33.1485 -82.5754 29° Northeast  Level FlightAware Approximate
01:06PM 33.1740 -82.5587 29° Northeast  Level FlightAware Approximate
01:07PM 33.1995 -82.5420 29° Northeast  Level FlightAware Approximate
01:08PM 33.2249 -82.5253 29° Northeast  Level FlightAware Approximate
01:09PM 33.2504 -82.5086 29° Northeast  Level FlightAware Approximate
01:10PM 33.2759 -82.4918 29° Northeast  Level FlightAware Approximate
01:11PM 33.3013 -82.4751 29° Northeast  Level FlightAware Approximate
01:12PM 33.3268 -82.4584 29° Northeast  Level FlightAware Approximate
01:13PM 33.3523 -82.4416 29° Northeast  Level FlightAware Approximate
01:14PM 33.3777 -82.4248 29° Northeast  Level FlightAware Approximate
01:15PM 33.4032 -82.4080 29° Northeast  Level FlightAware Approximate
01:16PM 33.4286 -82.3912 29° Northeast  Level FlightAware Approximate
01:17PM 33.4541 -82.3744 29° Northeast  Level FlightAware Approximate
01:18PM 33.4795 -82.3576 29° Northeast  Level FlightAware Approximate
01:19PM 33.5050 -82.3408 29° Northeast  Level FlightAware Approximate
01:20PM 33.5304 -82.3240 29° Northeast  Level FlightAware Approximate
01:21PM 33.5559 -82.3072 29° Northeast  Level FlightAware Approximate
01:22PM 33.5813 -82.2903 29° Northeast  Level FlightAware Approximate
01:23PM 33.6068 -82.2734 29° Northeast  Level FlightAware Approximate
01:24PM 33.6322 -82.2566 29° Northeast  Level FlightAware Approximate
01:25PM 33.6576 -82.2397 29° Northeast  Level FlightAware Approximate
01:26PM 33.6831 -82.2228 29° Northeast  Level FlightAware Approximate
01:27PM 33.7085 -82.2059 29° Northeast  Level FlightAware Approximate
01:28PM 33.7339 -82.1890 29° Northeast  Level FlightAware Approximate
01:29PM 33.7594 -82.1721 29° Northeast  Level FlightAware Approximate
01:30PM 33.7848 -82.1551 29° Northeast  Level FlightAware Approximate
01:31PM 33.8102 -82.1382 29° Northeast  Level FlightAware Approximate
01:32PM 33.8356 -82.1212 29° Northeast  Level FlightAware Approximate
01:33PM 33.8610 -82.1043 29° Northeast  Level FlightAware Approximate
01:34PM 33.8865 -82.0873 29° Northeast  Level FlightAware Approximate
01:35PM 33.9119 -82.0703 29° Northeast  Level FlightAware Approximate
01:36PM 33.9373 -82.0534 29° Northeast  Level FlightAware Approximate
01:37PM 33.9627 -82.0363 29° Northeast  Level FlightAware Approximate
01:38PM 33.9881 -82.0193 29° Northeast  Level FlightAware Approximate
01:39PM 34.0135 -82.0023 29° Northeast  Level FlightAware Approximate
01:40PM 34.0389 -81.9853 29° Northeast  Level FlightAware Approximate
01:41PM 34.0643 -81.9682 29° Northeast  Level FlightAware Approximate
01:42PM 34.0906 -81.9533 25° Northeast  Level FlightAware Approximate
01:43PM 34.1169 -81.9385 25° Northeast  Level FlightAware Approximate
01:44PM 34.1433 -81.9238 25° Northeast  Level FlightAware Approximate
01:45PM 34.1697 -81.9090 25° Northeast  Level FlightAware Approximate
01:46PM 34.1960 -81.8942 25° Northeast  Level FlightAware Approximate
01:47PM 34.2224 -81.8794 25° Northeast  Level FlightAware Approximate
01:48PM 34.2487 -81.8646 25° Northeast  Level FlightAware Approximate
01:49PM 34.2751 -81.8497 25° Northeast  Level FlightAware Approximate
01:50PM 34.3014 -81.8349 25° Northeast  Level FlightAware Approximate
01:51PM 34.3278 -81.8201 25° Northeast  Level FlightAware Approximate
01:52PM 34.3541 -81.8052 25° Northeast  Level FlightAware Approximate
01:52PM 34.5700 -81.7356 25° Northeast 118 136 5,000  Level Atlanta Center
01:53PM 34.3805 -81.7904 25° Northeast  Level FlightAware Approximate
01:53PM 34.6214 -81.7039 27° Northeast 120 138 4,900  Level Atlanta Center
01:54PM 34.4068 -81.7755 25° Northeast  Level FlightAware Approximate
01:54PM 34.6483 -81.6906 22° Northeast 115 132 5,000  Level Atlanta Center
01:55PM 34.4332 -81.7606 25° Northeast  Level FlightAware Approximate
01:55PM 34.6772 -81.6747 24° Northeast 116 133 5,000  Level Atlanta Center
01:56PM 34.4595 -81.7457 25° Northeast  Level FlightAware Approximate
01:56PM 34.7083 -81.6586 23° Northeast 117 135 5,100  Level Atlanta Center
01:57PM 34.4858 -81.7308 25° Northeast  Level FlightAware Approximate
01:57PM 34.7392 -81.6450 20° North 119 137 5,100  Level Atlanta Center
01:58PM 34.7661 -81.6292 26° Northeast 116 133 5,000 -60 Descending Atlanta Center
01:59PM 34.7992 -81.6081 28° Northeast 127 146 5,000  Level Atlanta Center
02:00PM 34.8300 -81.5919 23° Northeast 123 142 5,100  Climbing Atlanta Center
02:01PM 34.8608 -81.5706 30° Northeast 121 139 5,000 -120 Descending Atlanta Center
02:02PM 34.8919 -81.5572 19° North 119 137 4,900 -300 Descending Atlanta Center
02:03PM 34.9250 -81.5383 25° Northeast 128 147 4,400 -540 Descending Atlanta Center
02:04PM 34.9539 -81.5275 17° North 132 152 3,900 -540 Descending Atlanta Center
02:05PM 34.9931 -81.5033 27° Northeast 131 151 3,400 -480 Descending Atlanta Center
02:06PM 35.0219 -81.4872 25° Northeast 131 151 3,000 -180 Descending Atlanta Center
02:07PM 35.0531 -81.4761 16° North 120 138 3,100  Climbing Atlanta Center
02:08PM 35.0881 -81.4547 27° Northeast 120 138 3,000 -120 Descending Atlanta Center
02:10PM 35.1211 -81.4358 25° Northeast 118 136 2,900 60 Descending Atlanta Center
02:11PM 35.1519 -81.4197 23° Northeast 115 132 3,200 60 Climbing Atlanta Center
02:12PM 35.1789 -81.4011 29° Northeast 115 132 3,100 -60 Descending Atlanta Center
02:13PM 35.2094 -81.3747 35° Northeast 121 139 3,100 -60 Level Atlanta Center
02:14PM 35.2361 -81.3561 30° Northeast 125 144 3,000  Descending Atlanta Center
02:15PM 35.2650 -81.3425 21° North 114 131 3,100  Climbing Atlanta Center
02:16PM 35.2983 -81.3311 16° North 112 129 3,100 -60 Level Atlanta Center
02:17PM 35.3292 -81.3150 23° Northeast 113 130 3,000 -60 Descending Atlanta Center
02:18PM 35.3539 -81.3039 20° North 114 131 3,000  Level Atlanta Center
02:19PM 35.3869 -81.2875 22° Northeast 125 144 3,000 -60 Level Atlanta Center
02:20PM 35.4133 -81.2508 49° Northeast 112 129 2,900 -120 Descending Atlanta Center